createdAt,value
2018-03-18T00:04:19.658Z,49.03
2018-03-18T00:09:20.625Z,48.85
2018-03-18T00:14:21.559Z,49.49
2018-03-18T00:19:22.508Z,48.60
2018-03-18T00:24:23.458Z,48.85
2018-03-18T00:29:24.410Z,48.75
2018-03-18T00:34:25.358Z,49.44
2018-03-18T00:39:26.329Z,49.86
2018-03-18T00:44:27.267Z,48.44
2018-03-18T00:49:28.240Z,48.84
2018-03-18T00:54:29.183Z,48.85
2018-03-18T00:59:30.131Z,49.69
2018-03-18T01:04:31.039Z,49.22
2018-03-18T01:09:31.979Z,48.82
2018-03-18T01:14:32.907Z,50.49
2018-03-18T01:19:33.864Z,49.20
2018-03-18T01:24:34.827Z,49.33
2018-03-18T01:29:35.764Z,49.44
2018-03-18T01:34:37.083Z,49.42
2018-03-18T01:39:38.010Z,48.97
2018-03-18T01:44:38.948Z,48.97
2018-03-18T01:49:39.912Z,49.17
2018-03-18T01:54:40.860Z,48.56
2018-03-18T01:59:41.811Z,48.42
2018-03-18T02:04:42.731Z,49.03
2018-03-18T02:09:43.672Z,49.22
2018-03-18T02:14:44.604Z,49.12
2018-03-18T02:19:45.543Z,49.88
2018-03-18T02:24:46.473Z,49.45
2018-03-18T02:29:47.429Z,50.33
2018-03-18T02:34:48.335Z,50.92
2018-03-18T02:39:49.305Z,50.64
2018-03-18T02:44:50.239Z,51.45
2018-03-18T02:49:51.213Z,51.68
2018-03-18T02:54:52.142Z,50.87
2018-03-18T02:59:53.105Z,50.50
2018-03-18T03:04:54.020Z,51.47
2018-03-18T03:09:54.941Z,51.90
2018-03-18T03:14:55.871Z,52.39
2018-03-18T03:19:56.804Z,52.24
2018-03-18T03:24:57.725Z,52.23
2018-03-18T10:17:47.973Z,40.79
2018-03-18T10:22:49.002Z,35.98
2018-03-18T10:27:50.317Z,35.19
2018-03-18T10:37:59.198Z,34.84
2018-03-18T10:43:00.458Z,36.32
2018-03-18T10:48:01.421Z,36.95
2018-03-18T10:53:02.345Z,34.92
2018-03-18T10:58:03.297Z,34.49
2018-03-18T11:03:04.256Z,33.54
2018-03-18T11:08:05.262Z,32.62
2018-03-18T11:13:06.242Z,32.93
2018-03-18T11:18:07.216Z,33.76
2018-03-18T11:23:08.272Z,33.45
2018-03-18T11:28:09.239Z,32.62
2018-03-18T11:33:10.226Z,32.65
2018-03-18T11:38:11.701Z,32.21
2018-03-18T11:43:12.897Z,31.35
2018-03-18T11:48:13.884Z,31.32
2018-03-18T11:53:14.894Z,31.75
2018-03-18T11:58:15.878Z,30.41
2018-03-18T12:03:16.853Z,29.79
2018-03-18T12:13:58.842Z,30.89
2018-03-18T12:18:59.829Z,32.50
2018-03-18T12:24:00.865Z,32.69
2018-03-18T12:29:01.864Z,31.11
2018-03-18T12:34:03.244Z,31.83
2018-03-18T12:39:04.549Z,30.32
2018-03-18T12:44:05.591Z,32.95
2018-03-18T12:49:06.569Z,30.62
2018-03-18T12:54:07.549Z,30.65
2018-03-18T12:59:08.530Z,29.72
2018-03-18T13:04:09.507Z,29.77
2018-03-18T13:09:10.482Z,29.46
2018-03-18T13:14:11.495Z,29.51
2018-03-18T13:19:12.474Z,31.19
2018-03-18T13:24:13.527Z,30.99
2018-03-18T13:29:14.915Z,33.02
2018-03-18T13:34:15.952Z,30.97
2018-03-18T13:39:17.269Z,31.73
2018-03-18T13:44:18.232Z,31.65
2018-03-18T13:49:19.216Z,31.65
2018-03-18T13:54:20.259Z,32.30
2018-03-18T13:59:21.215Z,33.60
2018-03-18T14:04:22.190Z,31.96
2018-03-18T14:09:24.157Z,31.70
2018-03-18T14:14:25.176Z,33.32
2018-03-18T14:19:26.770Z,32.22
2018-03-18T14:24:27.809Z,32.71
2018-03-18T14:29:28.765Z,32.14
2018-03-18T14:34:29.767Z,30.40
2018-03-18T14:39:30.766Z,31.52
2018-03-18T14:44:31.730Z,33.64
2018-03-18T14:49:33.662Z,32.67
2018-03-18T14:54:34.635Z,30.58
2018-03-18T14:59:36.476Z,32.29
2018-03-18T15:04:37.455Z,33.27
2018-03-18T15:09:38.485Z,32.82
2018-03-18T15:14:39.461Z,33.45
2018-03-18T15:19:40.421Z,37.02
2018-03-18T15:24:41.460Z,36.14
2018-03-18T15:29:42.494Z,37.92
2018-03-18T15:34:43.482Z,38.48
2018-03-18T15:39:44.478Z,39.24
2018-03-18T15:44:45.463Z,40.82
2018-03-18T15:49:46.435Z,41.50
2018-03-18T15:54:47.409Z,41.90
2018-03-18T15:59:48.394Z,41.58
2018-03-18T16:04:49.350Z,43.29
2018-03-18T16:09:50.367Z,43.13
2018-03-18T16:14:51.361Z,45.65
2018-03-18T16:19:52.325Z,44.19
2018-03-18T16:24:53.318Z,45.42
2018-03-18T16:30:06.678Z,46.75
2018-03-18T16:35:08.493Z,45.20
2018-03-18T16:40:09.486Z,46.12
2018-03-18T16:45:10.490Z,46.47
2018-03-18T16:50:11.479Z,47.47
2018-03-18T16:55:12.511Z,49.09
2018-03-18T17:00:13.480Z,50.38
2018-03-18T17:05:14.458Z,50.33
2018-03-18T17:10:15.442Z,50.23
2018-03-18T17:15:16.414Z,50.64
2018-03-18T17:20:17.388Z,49.77
2018-03-18T17:25:18.425Z,51.30
2018-03-18T17:30:19.391Z,52.09
2018-03-18T17:35:20.402Z,54.75
2018-03-18T17:40:21.376Z,53.98
2018-03-18T17:45:34.669Z,52.20
2018-03-18T17:50:49.810Z,53.28
2018-03-18T17:56:03.205Z,54.54
2018-03-18T18:01:04.201Z,54.60
2018-03-18T18:06:05.190Z,54.33
2018-03-18T18:11:06.173Z,55.40
2018-03-18T18:16:07.167Z,54.20
2018-03-18T18:21:08.155Z,54.23
2018-03-18T18:26:09.170Z,54.91
2018-03-18T18:31:10.169Z,54.31
2018-03-18T18:36:11.127Z,55.51
2018-03-18T18:41:12.121Z,54.47
2018-03-18T18:46:13.119Z,54.26
2018-03-18T18:51:14.157Z,54.85
2018-03-18T18:56:15.156Z,56.19
2018-03-18T19:01:16.207Z,56.71
2018-03-18T19:06:17.206Z,56.63
2018-03-18T19:11:18.210Z,55.14
2018-03-18T19:16:19.196Z,56.38
2018-03-18T19:21:20.157Z,57.72
2018-03-18T19:26:21.221Z,57.92
2018-03-18T19:31:22.216Z,58.70
2018-03-18T19:36:23.218Z,58.17
2018-03-18T19:41:24.265Z,56.79
2018-03-18T19:46:25.270Z,58.16
2018-03-18T19:51:26.230Z,57.39
2018-03-18T19:56:27.217Z,57.73
2018-03-18T20:01:28.190Z,58.15
2018-03-18T20:06:30.080Z,57.45
2018-03-18T20:11:31.083Z,59.65
2018-03-18T20:16:32.081Z,57.68
2018-03-18T20:21:33.061Z,57.82
2018-03-18T20:26:34.150Z,58.55
2018-03-18T20:31:35.117Z,58.90
2018-03-18T20:36:36.090Z,58.45
2018-03-18T20:41:37.066Z,58.20
2018-03-18T20:46:38.086Z,57.21
2018-03-18T20:51:39.075Z,58.47
2018-03-18T21:07:50.065Z,58.55
2018-03-18T21:12:51.059Z,60.27
2018-03-18T21:17:57.065Z,59.70
2018-03-18T21:22:58.912Z,59.12
2018-03-18T21:27:59.942Z,60.08
2018-03-18T21:33:00.904Z,59.80
2018-03-18T21:38:01.901Z,59.98
2018-03-18T21:43:02.848Z,58.50
2018-03-18T21:48:03.822Z,59.19
2018-03-18T21:53:04.781Z,59.75
2018-03-18T21:58:05.737Z,58.96
2018-03-18T22:03:06.674Z,58.02
2018-03-18T22:08:07.624Z,58.18
2018-03-18T22:13:08.570Z,58.33
2018-03-18T22:18:09.533Z,58.53
2018-03-18T22:23:10.489Z,58.99
2018-03-18T22:28:11.497Z,58.06
2018-03-18T22:33:12.426Z,57.79
2018-03-18T22:38:13.386Z,57.26
2018-03-18T22:43:14.361Z,56.58
2018-03-18T22:48:15.294Z,56.65
2018-03-18T22:53:16.242Z,55.48
2018-03-18T22:58:17.226Z,56.36
2018-03-18T23:03:18.184Z,55.79
2018-03-18T23:08:19.126Z,55.25
2018-03-18T23:13:20.078Z,57.79
2018-03-18T23:18:21.038Z,55.86
2018-03-18T23:23:22.004Z,56.44
2018-03-18T23:28:23.048Z,55.94
2018-03-18T23:33:23.993Z,56.61
2018-03-18T23:38:24.933Z,56.55
2018-03-18T23:43:25.866Z,57.10
2018-03-18T23:48:33.869Z,56.34
2018-03-18T23:53:34.814Z,56.41
2018-03-18T23:58:35.744Z,56.92
